LTFM

Istanbul Airport

ICAO Code LTFM
IATA Code IST
Name Istanbul Airport
Location Istanbul, Istanbul, TR
Elevation 325 Feet / 99.1 Meters
Latitude 41.27533300
Longitude 28.75200000
METAR LTFM 051720Z 05013KT 9999 SCT030 18/09 Q1027 NOSIG RMK RWY17L 05012KT RWY34L 04011KT RWY16R 05012KT RWY36 05011KT RWY18 05013KT
Extra information Display NOTAMS
Display Charts
Runway Length Width Surface Elevation